Time;durP1;ratioP1;P1;durP2;ratioP2;P2;SDS_P1;SDS_P2;PMS_P1;PMS_P2;Temp;Humidity;BMP_temperature;BMP_pressure;BME280_temperature;BME280_humidity;BME280_pressure;Samples;Min_cycle;Max_cycle;Signal;HPM_P1;HPM_P2
2023/07/23 00:01:07;;;;;;;9.75;6.30;;;14.90;99.90;;;;;;5035054;28;20441;-67
2023/07/23 00:03:33;;;;;;;8.95;5.80;;;14.90;99.90;;;;;;5018771;28;20107;-67
2023/07/23 00:06:08;;;;;;;9.27;6.13;;;15.00;99.90;;;;;;5034740;28;20049;-68
2023/07/23 00:08:35;;;;;;;10.68;6.30;;;14.90;99.90;;;;;;5034587;28;20056;-69
2023/07/23 00:11:01;;;;;;;10.55;6.40;;;15.00;99.90;;;;;;5052577;28;20044;-68
2023/07/23 00:13:27;;;;;;;10.85;6.35;;;15.00;99.90;;;;;;5034668;28;20103;-67
2023/07/23 00:15:54;;;;;;;10.27;5.53;;;15.00;99.90;;;;;;5035077;28;20397;-68
2023/07/23 00:18:20;;;;;;;12.25;6.22;;;15.00;99.90;;;;;;5017913;28;20044;-66
2023/07/23 00:20:46;;;;;;;7.95;5.88;;;15.10;99.90;;;;;;5017944;28;20126;-67
2023/07/23 00:23:16;;;;;;;8.50;5.88;;;15.00;99.90;;;;;;5034829;28;20041;-68
2023/07/23 00:25:42;;;;;;;9.13;6.05;;;15.00;99.90;;;;;;5034827;28;20049;-67
2023/07/23 00:28:09;;;;;;;9.80;5.45;;;15.10;99.90;;;;;;5034285;28;20148;-66
2023/07/23 00:30:36;;;;;;;8.45;5.80;;;15.00;99.90;;;;;;5034054;28;20064;-67
2023/07/23 00:33:02;;;;;;;8.60;5.32;;;15.00;99.90;;;;;;5034604;28;20053;-68
2023/07/23 00:35:29;;;;;;;8.05;5.15;;;15.00;99.90;;;;;;5017838;28;20080;-68
2023/07/23 00:37:55;;;;;;;9.68;5.50;;;15.10;99.90;;;;;;5034363;28;20161;-68
2023/07/23 00:40:21;;;;;;;8.07;5.88;;;15.00;99.90;;;;;;5035132;28;20067;-66
2023/07/23 00:42:47;;;;;;;8.75;5.65;;;15.00;99.90;;;;;;5034642;28;20103;-68
2023/07/23 00:45:13;;;;;;;8.98;5.47;;;15.00;99.90;;;;;;5035099;28;20052;-67
2023/07/23 00:47:42;;;;;;;9.32;5.57;;;14.90;99.90;;;;;;5018096;28;20049;-69
2023/07/23 00:50:09;;;;;;;8.57;5.32;;;14.90;99.90;;;;;;5018145;28;20049;-67
2023/07/23 00:52:37;;;;;;;7.30;5.13;;;15.00;99.90;;;;;;5034303;28;20409;-68
2023/07/23 00:55:05;;;;;;;8.10;5.63;;;14.90;99.90;;;;;;5018004;28;20040;-68
2023/07/23 00:57:31;;;;;;;8.75;5.43;;;14.90;99.90;;;;;;5032413;28;20429;-68
2023/07/23 00:59:57;;;;;;;8.93;5.40;;;14.90;99.90;;;;;;5049914;28;20341;-68
2023/07/23 01:02:25;;;;;;;7.70;5.70;;;14.80;99.90;;;;;;5034069;28;20048;-67
2023/07/23 01:04:53;;;;;;;10.75;5.53;;;14.70;99.90;;;;;;5052032;28;20053;-67
2023/07/23 01:07:19;;;;;;;9.48;5.47;;;14.70;99.90;;;;;;5051640;28;20061;-68
2023/07/23 01:09:48;;;;;;;7.85;5.90;;;14.70;99.90;;;;;;5034148;28;20152;-69
2023/07/23 01:12:17;;;;;;;9.50;5.57;;;14.80;99.90;;;;;;5017506;28;20057;-70
2023/07/23 01:14:43;;;;;;;8.88;5.65;;;14.70;99.90;;;;;;5017616;28;20057;-68
2023/07/23 01:17:11;;;;;;;9.95;5.55;;;14.60;99.90;;;;;;5033247;28;20436;-68
2023/07/23 01:19:37;;;;;;;8.65;5.38;;;14.70;99.90;;;;;;5033380;28;20111;-68
2023/07/23 01:22:07;;;;;;;8.95;5.65;;;14.60;99.90;;;;;;5034173;28;20083;-68
2023/07/23 01:24:35;;;;;;;9.27;5.97;;;14.70;99.90;;;;;;5017747;28;20544;-68
2023/07/23 01:27:02;;;;;;;10.75;5.80;;;14.70;99.90;;;;;;5017542;28;20045;-67
2023/07/23 01:29:29;;;;;;;10.48;5.90;;;14.60;99.90;;;;;;5033317;28;20057;-68
2023/07/23 01:31:55;;;;;;;10.50;5.85;;;14.70;99.90;;;;;;5017611;28;20048;-69
2023/07/23 01:34:22;;;;;;;9.43;5.80;;;14.70;99.90;;;;;;5033891;28;20059;-68
2023/07/23 01:36:50;;;;;;;8.95;5.63;;;14.70;99.90;;;;;;5015560;28;20046;-67
2023/07/23 01:39:17;;;;;;;11.63;6.05;;;14.70;99.90;;;;;;5032179;28;20049;-68
2023/07/23 01:41:43;;;;;;;9.68;5.80;;;14.60;99.90;;;;;;5017678;28;20429;-68
2023/07/23 01:44:10;;;;;;;8.52;5.55;;;14.70;99.90;;;;;;5017873;28;20049;-68
2023/07/23 01:46:37;;;;;;;9.25;5.97;;;14.70;99.90;;;;;;5017871;28;20473;-68
2023/07/23 01:49:05;;;;;;;8.88;6.63;;;14.70;99.90;;;;;;5017286;28;20057;-69
2023/07/23 01:51:31;;;;;;;10.90;6.07;;;14.70;99.90;;;;;;5017686;28;20046;-68
2023/07/23 01:53:58;;;;;;;9.32;6.25;;;14.70;99.90;;;;;;5001165;28;20429;-67
2023/07/23 01:56:24;;;;;;;9.15;5.95;;;14.70;99.90;;;;;;5017890;28;20107;-68
2023/07/23 01:58:50;;;;;;;10.02;6.50;;;14.70;99.90;;;;;;5000847;28;20053;-67
2023/07/23 02:01:16;;;;;;;9.48;6.32;;;14.80;99.90;;;;;;5001339;28;20480;-67
2023/07/23 02:03:43;;;;;;;10.45;6.50;;;14.80;99.90;;;;;;5001277;28;20064;-67
2023/07/23 02:06:09;;;;;;;9.52;6.97;;;14.80;99.90;;;;;;5017586;28;20054;-67
2023/07/23 02:08:36;;;;;;;9.50;6.25;;;14.90;99.90;;;;;;5000481;28;20466;-70
2023/07/23 02:11:02;;;;;;;8.80;6.03;;;14.80;99.90;;;;;;5017457;28;20148;-67
2023/07/23 02:13:29;;;;;;;8.68;5.38;;;14.90;99.90;;;;;;5001017;28;20045;-67
2023/07/23 02:15:55;;;;;;;9.20;6.20;;;14.90;99.90;;;;;;5001049;28;20049;-69
2023/07/23 02:18:22;;;;;;;9.18;6.07;;;14.90;99.90;;;;;;5016518;28;20054;-68
2023/07/23 02:20:49;;;;;;;10.15;6.07;;;14.80;99.90;;;;;;5000639;28;20384;-68
2023/07/23 02:23:16;;;;;;;9.30;6.72;;;14.90;99.90;;;;;;5017289;28;20095;-68
2023/07/23 02:25:43;;;;;;;9.77;5.70;;;14.80;99.90;;;;;;5001114;28;20057;-67
2023/07/23 02:28:10;;;;;;;12.25;6.65;;;14.90;99.90;;;;;;5016710;28;20461;-67
2023/07/23 02:30:38;;;;;;;12.90;6.85;;;14.90;99.90;;;;;;5000419;28;20057;-68
2023/07/23 02:33:05;;;;;;;10.00;7.28;;;14.80;99.90;;;;;;5017134;28;20437;-68
2023/07/23 02:35:35;;;;;;;9.88;7.03;;;14.80;99.90;;;;;;5023740;28;20432;-67
2023/07/23 02:38:02;;;;;;;9.13;6.65;;;14.80;99.90;;;;;;5020042;28;20420;-68
2023/07/23 02:40:32;;;;;;;9.65;6.70;;;14.90;99.90;;;;;;5036290;28;20045;-67
2023/07/23 02:42:58;;;;;;;10.57;6.45;;;14.80;99.90;;;;;;5020018;28;20045;-67
2023/07/23 02:45:24;;;;;;;10.75;7.25;;;14.80;99.90;;;;;;5036790;28;20432;-67
2023/07/23 02:47:50;;;;;;;10.95;6.75;;;14.90;99.90;;;;;;5030275;28;20060;-67
2023/07/23 02:50:17;;;;;;;12.23;6.85;;;14.80;99.90;;;;;;5032352;28;20057;-69
2023/07/23 02:52:43;;;;;;;9.77;6.65;;;14.80;99.90;;;;;;5036263;28;20049;-67
2023/07/23 02:55:09;;;;;;;9.68;6.05;;;14.80;99.90;;;;;;5036290;28;20071;-67
2023/07/23 02:57:35;;;;;;;10.82;6.72;;;14.80;99.90;;;;;;5033486;28;20363;-69
2023/07/23 03:00:02;;;;;;;11.05;6.65;;;14.90;99.90;;;;;;5016295;28;20053;-68
2023/07/23 03:02:29;;;;;;;10.63;6.55;;;14.80;99.90;;;;;;5000147;28;20107;-67
2023/07/23 03:04:55;;;;;;;12.85;6.97;;;14.80;99.90;;;;;;5016606;28;20108;-67
2023/07/23 03:07:22;;;;;;;9.70;6.18;;;14.80;99.90;;;;;;5016549;28;20057;-69
2023/07/23 03:09:49;;;;;;;11.80;6.80;;;14.90;99.90;;;;;;5035835;28;20063;-67
2023/07/23 03:12:15;;;;;;;8.95;6.25;;;14.80;99.90;;;;;;5036394;28;20061;-68
2023/07/23 03:14:42;;;;;;;12.32;6.97;;;14.80;99.90;;;;;;5036076;28;20106;-67
2023/07/23 03:17:08;;;;;;;9.07;6.60;;;14.90;99.90;;;;;;5019412;28;20098;-68
2023/07/23 03:19:34;;;;;;;10.27;6.75;;;14.90;99.90;;;;;;5035368;28;20052;-67
2023/07/23 03:22:01;;;;;;;9.30;6.55;;;14.80;99.90;;;;;;5035683;28;20542;-67
2023/07/23 03:24:27;;;;;;;9.95;6.80;;;14.80;99.90;;;;;;5036005;28;20175;-67
2023/07/23 03:26:54;;;;;;;9.55;6.88;;;14.90;99.90;;;;;;5019128;28;20056;-66
2023/07/23 03:29:20;;;;;;;9.80;6.53;;;14.90;99.90;;;;;;5035159;28;20486;-66
2023/07/23 03:31:46;;;;;;;11.02;6.60;;;14.80;99.90;;;;;;5035653;28;20103;-69
2023/07/23 03:34:14;;;;;;;9.73;6.40;;;14.90;99.90;;;;;;5019342;28;20056;-68
2023/07/23 03:36:40;;;;;;;12.20;7.72;;;14.90;99.90;;;;;;5035174;28;20045;-67
2023/07/23 03:39:06;;;;;;;11.77;7.18;;;14.90;99.90;;;;;;5018363;28;20053;-67
2023/07/23 03:41:33;;;;;;;11.57;7.35;;;14.80;99.90;;;;;;5035645;28;20469;-68
2023/07/23 03:44:00;;;;;;;10.30;7.05;;;14.90;99.90;;;;;;5018757;28;20421;-67
2023/07/23 03:46:26;;;;;;;11.13;7.22;;;14.90;99.90;;;;;;5035465;28;20481;-69
2023/07/23 03:48:52;;;;;;;11.43;7.22;;;14.90;99.90;;;;;;5034856;28;20103;-67
2023/07/23 03:51:20;;;;;;;10.35;7.22;;;14.80;99.90;;;;;;5035466;28;20056;-67
2023/07/23 03:53:46;;;;;;;10.80;7.07;;;14.80;99.90;;;;;;5018759;28;20049;-70
2023/07/23 03:56:13;;;;;;;10.23;7.28;;;14.90;99.90;;;;;;5035136;28;20049;-67
2023/07/23 03:58:39;;;;;;;11.35;7.80;;;14.80;99.90;;;;;;5018031;28;20106;-68
2023/07/23 04:01:05;;;;;;;13.30;7.65;;;14.80;99.90;;;;;;5034863;28;20424;-67
2023/07/23 04:03:32;;;;;;;14.57;8.13;;;14.90;99.90;;;;;;5034937;28;20048;-68
2023/07/23 04:05:58;;;;;;;12.75;7.57;;;14.90;99.90;;;;;;5034756;28;20052;-68
2023/07/23 04:08:24;;;;;;;12.15;8.07;;;14.80;99.90;;;;;;5034637;28;20053;-67
2023/07/23 04:10:54;;;;;;;13.18;7.88;;;14.80;99.90;;;;;;5035210;28;20469;-67
2023/07/23 04:13:20;;;;;;;10.80;7.75;;;14.80;99.90;;;;;;5035063;28;20053;-68
2023/07/23 04:15:46;;;;;;;12.57;7.90;;;14.80;99.90;;;;;;5034813;28;20056;-67
2023/07/23 04:18:14;;;;;;;13.15;8.40;;;14.80;99.90;;;;;;5034386;28;20060;-67
2023/07/23 04:20:41;;;;;;;12.95;8.50;;;14.70;99.90;;;;;;5034577;28;20435;-68
2023/07/23 04:23:07;;;;;;;10.73;8.00;;;14.80;99.90;;;;;;5034988;28;20080;-67
2023/07/23 04:25:33;;;;;;;15.10;8.48;;;14.70;99.90;;;;;;5034825;28;20137;-67
2023/07/23 04:28:15;;;;;;;11.70;8.15;;;14.70;99.90;;;;;;5034514;28;20055;-69
2023/07/23 04:30:41;;;;;;;11.18;8.40;;;14.80;99.90;;;;;;5034639;28;20124;-68
2023/07/23 04:33:07;;;;;;;11.55;8.82;;;14.80;99.90;;;;;;5034761;28;20520;-67
2023/07/23 04:35:33;;;;;;;14.75;8.93;;;14.80;99.90;;;;;;5033578;28;20445;-68
2023/07/23 04:38:00;;;;;;;11.93;8.75;;;14.80;99.90;;;;;;5051224;28;20042;-69
2023/07/23 04:40:26;;;;;;;11.80;8.63;;;14.80;99.90;;;;;;5034277;28;20041;-68
2023/07/23 04:42:54;;;;;;;13.23;8.27;;;14.80;99.90;;;;;;5051774;28;20059;-68
2023/07/23 04:45:20;;;;;;;13.30;8.85;;;14.80;99.90;;;;;;5051977;28;20048;-68
2023/07/23 04:47:46;;;;;;;13.85;8.63;;;14.80;99.90;;;;;;5048732;28;20053;-68
2023/07/23 04:50:12;;;;;;;11.38;8.82;;;14.80;99.90;;;;;;5031556;28;20053;-68
2023/07/23 04:52:39;;;;;;;14.00;8.88;;;14.80;99.90;;;;;;5032041;28;20053;-68
2023/07/23 04:55:07;;;;;;;11.82;8.52;;;14.80;99.90;;;;;;5014470;28;20075;-68
2023/07/23 04:57:34;;;;;;;13.75;9.25;;;14.80;99.90;;;;;;5015791;28;20041;-68
2023/07/23 05:00:00;;;;;;;12.07;7.88;;;14.90;99.90;;;;;;5051572;28;20107;-68
2023/07/23 05:02:26;;;;;;;14.20;9.07;;;14.80;99.90;;;;;;5052197;28;20113;-68
2023/07/23 05:05:06;;;;;;;12.57;8.77;;;14.90;99.90;;;;;;5051725;28;20057;-68
2023/07/23 05:07:32;;;;;;;14.07;8.75;;;14.90;99.90;;;;;;5050082;28;20501;-68
2023/07/23 05:10:13;;;;;;;11.55;8.35;;;14.90;99.90;;;;;;5012942;28;20437;-68
2023/07/23 05:12:40;;;;;;;13.35;8.40;;;15.00;99.90;;;;;;5031387;28;20437;-68
2023/07/23 05:15:12;;;;;;;12.45;9.20;;;14.90;99.90;;;;;;5013724;28;20053;-68
2023/07/23 05:17:39;;;;;;;12.65;9.00;;;15.00;99.90;;;;;;4999673;28;20057;-68
2023/07/23 05:20:06;;;;;;;10.70;8.55;;;15.00;99.90;;;;;;5033819;28;20060;-68
2023/07/23 05:22:39;;;;;;;11.32;9.13;;;15.10;99.90;;;;;;5051578;28;20454;-68
2023/07/23 05:25:06;;;;;;;11.85;8.25;;;15.00;99.90;;;;;;5034349;28;20087;-68
2023/07/23 05:27:32;;;;;;;12.98;9.52;;;15.00;99.90;;;;;;5050430;28;20063;-68
2023/07/23 05:29:58;;;;;;;14.55;9.63;;;15.10;99.90;;;;;;5014010;28;20053;-68
2023/07/23 05:32:25;;;;;;;13.68;9.20;;;15.10;99.90;;;;;;5031892;28;20057;-68
2023/07/23 05:34:53;;;;;;;12.40;9.20;;;15.10;99.90;;;;;;5014149;28;20053;-68
2023/07/23 05:37:20;;;;;;;11.95;9.32;;;15.20;99.90;;;;;;5031575;28;20049;-68
2023/07/23 05:39:52;;;;;;;15.25;9.40;;;15.20;99.90;;;;;;5033287;28;20122;-68
2023/07/23 05:42:18;;;;;;;12.18;8.52;;;15.30;99.90;;;;;;5051737;28;20057;-69
2023/07/23 05:44:45;;;;;;;13.75;8.85;;;15.40;99.90;;;;;;5051709;28;20049;-68
2023/07/23 05:47:11;;;;;;;15.02;8.48;;;15.30;99.90;;;;;;5051193;28;20389;-68
2023/07/23 05:49:37;;;;;;;13.65;8.52;;;15.40;99.90;;;;;;5050058;28;20049;-67
2023/07/23 05:52:05;;;;;;;14.23;8.85;;;15.40;99.90;;;;;;5051415;28;20110;-68
2023/07/23 05:54:31;;;;;;;9.23;8.05;;;15.40;99.90;;;;;;5051290;28;20041;-68
2023/07/23 05:56:59;;;;;;;11.63;8.05;;;15.50;99.90;;;;;;5051136;28;20049;-68
2023/07/23 05:59:29;;;;;;;12.75;8.70;;;15.50;99.90;;;;;;5034796;28;20073;-68
2023/07/23 06:01:59;;;;;;;11.57;8.07;;;15.60;99.90;;;;;;5014387;28;20486;-68
2023/07/23 06:04:26;;;;;;;14.35;9.07;;;15.60;99.90;;;;;;5031617;28;20050;-68
2023/07/23 06:06:52;;;;;;;13.35;8.68;;;15.80;99.90;;;;;;5031212;28;20053;-68
2023/07/23 06:09:18;;;;;;;12.63;8.52;;;15.70;99.90;;;;;;5045721;28;20114;-68
2023/07/23 06:11:45;;;;;;;11.80;8.60;;;15.70;99.90;;;;;;5051249;28;20106;-68
2023/07/23 06:14:11;;;;;;;10.65;8.38;;;15.80;99.90;;;;;;5033267;28;20360;-68
2023/07/23 06:16:38;;;;;;;10.93;8.05;;;15.80;99.90;;;;;;5051081;28;20132;-68
2023/07/23 06:19:04;;;;;;;11.88;8.10;;;15.90;99.90;;;;;;5037672;28;20046;-68
2023/07/23 06:21:30;;;;;;;11.10;7.45;;;15.80;99.90;;;;;;5031121;28;20053;-67
2023/07/23 06:23:57;;;;;;;10.60;7.10;;;15.90;99.90;;;;;;5013855;28;20080;-68
2023/07/23 06:26:23;;;;;;;10.75;7.07;;;15.90;99.90;;;;;;5030820;28;20182;-68
2023/07/23 06:28:49;;;;;;;12.05;7.10;;;16.00;99.90;;;;;;5053378;28;20378;-68
2023/07/23 06:31:15;;;;;;;10.32;7.00;;;16.10;99.90;;;;;;5054168;28;20515;-67
2023/07/23 06:33:42;;;;;;;10.85;7.30;;;16.10;99.90;;;;;;5054545;28;20060;-67
2023/07/23 06:36:08;;;;;;;9.52;6.72;;;16.10;99.90;;;;;;5042906;28;20429;-68
2023/07/23 06:38:35;;;;;;;10.07;6.82;;;16.10;99.90;;;;;;5033496;28;20049;-68
2023/07/23 06:41:01;;;;;;;12.43;7.75;;;16.20;99.90;;;;;;5017024;28;20041;-68
2023/07/23 06:43:27;;;;;;;9.50;7.28;;;16.10;99.90;;;;;;5034143;28;20100;-67
2023/07/23 06:45:53;;;;;;;11.88;7.47;;;16.20;99.90;;;;;;5034368;28;20052;-68
2023/07/23 06:48:21;;;;;;;11.23;7.63;;;16.20;99.90;;;;;;5033918;28;20049;-68
2023/07/23 06:50:48;;;;;;;10.10;7.43;;;16.20;99.90;;;;;;5034154;28;20046;-68
2023/07/23 06:53:14;;;;;;;10.90;7.03;;;16.20;99.90;;;;;;5016860;28;20049;-68
2023/07/23 06:56:05;;;;;;;13.98;7.97;;;16.20;99.90;;;;;;5033871;28;20046;-68
2023/07/23 06:58:36;;;;;;;10.60;7.70;;;16.20;99.90;;;;;;5033408;28;20108;-68
2023/07/23 07:01:03;;;;;;;13.48;7.63;;;16.20;99.90;;;;;;5016671;28;20056;-68
2023/07/23 07:03:30;;;;;;;12.70;7.90;;;16.10;99.90;;;;;;5016233;28;20045;-68
2023/07/23 07:05:56;;;;;;;11.38;7.93;;;16.20;99.90;;;;;;5016293;28;20065;-69
2023/07/23 07:08:22;;;;;;;12.43;7.68;;;16.30;99.90;;;;;;5015478;28;20050;-68
2023/07/23 07:10:49;;;;;;;12.13;7.55;;;16.20;99.90;;;;;;5033842;28;20053;-68
2023/07/23 07:13:16;;;;;;;14.52;8.43;;;16.30;99.90;;;;;;5033932;28;20065;-68
2023/07/23 07:15:43;;;;;;;11.90;7.28;;;16.20;99.90;;;;;;5032414;28;20378;-68
2023/07/23 07:18:09;;;;;;;11.85;7.38;;;16.30;99.90;;;;;;5032270;28;20460;-68
2023/07/23 07:20:35;;;;;;;11.90;8.00;;;16.30;99.90;;;;;;5033006;28;20127;-67
2023/07/23 07:23:02;;;;;;;11.70;7.60;;;16.20;99.90;;;;;;5033066;28;20037;-67
2023/07/23 07:25:28;;;;;;;10.45;7.30;;;16.20;99.90;;;;;;5032845;28;20371;-67
2023/07/23 07:27:54;;;;;;;10.90;7.68;;;16.20;99.90;;;;;;5032779;28;20046;-68
2023/07/23 07:30:20;;;;;;;10.68;7.22;;;16.10;99.90;;;;;;5033562;28;20050;-67
2023/07/23 07:32:46;;;;;;;11.93;7.22;;;16.10;99.90;;;;;;5033425;28;20053;-67
2023/07/23 07:35:13;;;;;;;12.63;7.25;;;16.10;99.90;;;;;;5036642;28;20053;-68
2023/07/23 07:37:39;;;;;;;9.95;6.72;;;16.00;99.90;;;;;;5051743;28;20094;-68
2023/07/23 07:40:06;;;;;;;11.40;7.68;;;16.00;99.90;;;;;;5032905;28;20073;-68
2023/07/23 07:42:32;;;;;;;10.50;7.43;;;16.00;99.90;;;;;;5015675;28;20244;-67
2023/07/23 07:44:58;;;;;;;11.15;7.05;;;16.00;99.90;;;;;;5015401;28;20053;-67
2023/07/23 07:47:24;;;;;;;11.13;7.13;;;16.00;99.90;;;;;;5015660;28;20046;-67
2023/07/23 07:49:54;;;;;;;10.55;6.45;;;16.10;99.90;;;;;;5018119;28;20057;-68
2023/07/23 07:52:23;;;;;;;9.05;6.38;;;16.10;99.90;;;;;;5053013;28;20457;-68
2023/07/23 07:54:49;;;;;;;10.82;7.45;;;16.20;99.90;;;;;;5035475;28;20446;-67
2023/07/23 07:57:16;;;;;;;10.35;6.72;;;16.20;99.90;;;;;;5031730;28;20107;-68
2023/07/23 07:59:42;;;;;;;11.48;6.63;;;16.20;99.90;;;;;;5021424;28;20049;-68
2023/07/23 08:02:10;;;;;;;9.35;6.57;;;16.20;99.90;;;;;;5015160;28;20045;-66
2023/07/23 08:04:36;;;;;;;12.77;7.22;;;16.10;99.90;;;;;;5001371;28;20068;-71
2023/07/23 08:07:03;;;;;;;10.25;6.63;;;16.20;99.90;;;;;;5015028;28;20050;-66
2023/07/23 08:09:31;;;;;;;10.95;6.80;;;16.20;99.90;;;;;;5030135;28;20049;-68
2023/07/23 08:12:00;;;;;;;9.55;6.05;;;16.20;99.90;;;;;;5025391;28;20054;-68
2023/07/23 08:14:26;;;;;;;11.52;6.82;;;16.10;99.90;;;;;;5015154;28;20108;-68
2023/07/23 08:16:54;;;;;;;10.95;6.65;;;16.10;99.90;;;;;;5015061;28;20115;-67
2023/07/23 08:19:21;;;;;;;8.70;6.05;;;16.20;99.90;;;;;;5012233;28;20055;-67
2023/07/23 08:21:47;;;;;;;8.90;5.85;;;16.20;99.90;;;;;;5004353;28;20041;-66
2023/07/23 08:24:14;;;;;;;9.95;6.15;;;16.20;99.90;;;;;;5014877;28;20103;-69
2023/07/23 08:26:42;;;;;;;8.25;7.00;;;16.20;99.90;;;;;;5014225;28;20068;-68
2023/07/23 08:29:10;;;;;;;12.00;6.35;;;16.20;99.90;;;;;;5024169;28;20391;-68
2023/07/23 08:31:37;;;;;;;9.07;6.43;;;16.30;99.90;;;;;;5033370;28;20057;-68
2023/07/23 08:34:04;;;;;;;10.02;6.22;;;16.30;99.90;;;;;;5034448;28;20056;-68
2023/07/23 08:36:31;;;;;;;8.68;6.40;;;16.30;99.90;;;;;;5033858;28;20053;-67
2023/07/23 08:38:57;;;;;;;8.75;6.10;;;16.30;99.90;;;;;;5022547;28;20351;-67
2023/07/23 08:41:53;;;;;;;8.80;5.57;;;16.30;99.90;;;;;;5014803;28;20056;-67
2023/07/23 08:45:07;;;;;;;8.98;5.55;;;16.40;99.90;;;;;;4998028;28;20050;-67
2023/07/23 08:47:37;;;;;;;8.57;5.68;;;16.40;99.90;;;;;;4955121;28;20054;-67
2023/07/23 08:50:13;;;;;;;8.38;5.35;;;16.40;99.90;;;;;;5003994;28;20053;-67
2023/07/23 08:52:41;;;;;;;7.60;5.30;;;16.40;99.90;;;;;;5011969;28;20383;-68
2023/07/23 08:55:08;;;;;;;8.23;5.15;;;16.40;99.90;;;;;;4994519;28;20529;-68
2023/07/23 08:57:35;;;;;;;8.93;5.57;;;16.40;99.90;;;;;;4994771;28;20042;-68
2023/07/23 09:00:02;;;;;;;7.78;5.47;;;16.40;99.90;;;;;;5013933;28;20068;-68
2023/07/23 09:02:29;;;;;;;7.97;5.78;;;16.40;99.90;;;;;;5030859;28;20124;-68
2023/07/23 09:04:56;;;;;;;8.43;5.90;;;16.40;99.90;;;;;;5031757;28;20414;-68
2023/07/23 09:07:22;;;;;;;8.07;5.82;;;16.40;99.90;;;;;;5031023;28;20050;-68
2023/07/23 09:09:49;;;;;;;7.03;5.15;;;16.40;99.90;;;;;;5030980;28;20053;-68
2023/07/23 09:12:27;;;;;;;9.63;5.57;;;16.50;99.90;;;;;;4983486;28;20061;-69
2023/07/23 09:15:09;;;;;;;6.38;4.70;;;16.50;99.90;;;;;;4999385;28;20053;-68
2023/07/23 09:17:35;;;;;;;9.30;5.38;;;16.50;99.90;;;;;;5031366;28;20374;-69
2023/07/23 09:20:02;;;;;;;6.30;5.10;;;16.60;99.90;;;;;;5030699;28;20104;-69
2023/07/23 09:22:33;;;;;;;7.10;4.72;;;16.50;99.90;;;;;;5031764;28;20041;-69
2023/07/23 09:25:00;;;;;;;6.00;4.75;;;16.50;99.90;;;;;;5031470;28;20041;-69
2023/07/23 09:27:42;;;;;;;7.20;4.57;;;16.60;99.90;;;;;;5030612;28;20279;-69
2023/07/23 09:30:17;;;;;;;6.93;5.30;;;16.60;99.90;;;;;;5011809;28;20116;-68
2023/07/23 09:32:44;;;;;;;6.80;5.65;;;16.70;99.90;;;;;;4994971;28;20057;-69
2023/07/23 09:35:10;;;;;;;7.70;5.07;;;16.70;99.90;;;;;;4997151;28;20379;-68
2023/07/23 09:37:37;;;;;;;7.65;4.68;;;16.60;99.90;;;;;;4997288;28;20056;-68
2023/07/23 09:40:03;;;;;;;7.68;5.72;;;16.60;99.90;;;;;;5033760;28;20365;-68
2023/07/23 09:42:30;;;;;;;8.40;5.70;;;16.70;99.90;;;;;;5033713;28;20498;-68
2023/07/23 09:45:00;;;;;;;6.10;4.50;;;16.80;99.90;;;;;;5034041;28;20079;-68
2023/07/23 09:47:28;;;;;;;7.88;5.30;;;16.70;99.90;;;;;;5033487;28;20053;-68
2023/07/23 09:49:55;;;;;;;9.10;5.40;;;16.80;99.90;;;;;;5033089;28;20056;-68
2023/07/23 09:52:23;;;;;;;7.15;4.68;;;16.70;99.90;;;;;;5033841;28;20041;-68
2023/07/23 09:54:52;;;;;;;7.13;5.20;;;16.80;99.90;;;;;;5017613;28;20122;-68
2023/07/23 09:57:19;;;;;;;6.57;4.82;;;16.80;99.90;;;;;;5033271;28;20141;-67
2023/07/23 09:59:47;;;;;;;9.05;5.28;;;16.80;99.90;;;;;;5034105;28;20057;-67
2023/07/23 10:02:15;;;;;;;8.15;5.50;;;16.80;99.90;;;;;;5055087;28;20045;-67
2023/07/23 10:04:41;;;;;;;7.95;5.93;;;16.80;99.90;;;;;;5054429;28;20378;-67
2023/07/23 10:07:10;;;;;;;7.15;5.40;;;16.90;99.90;;;;;;5036901;28;20060;-67
2023/07/23 10:09:37;;;;;;;7.32;5.47;;;16.90;99.90;;;;;;5036655;28;20044;-67
2023/07/23 10:12:05;;;;;;;7.30;5.70;;;16.80;99.90;;;;;;5054899;28;20079;-67
2023/07/23 10:14:31;;;;;;;9.32;6.13;;;16.80;99.90;;;;;;5037248;28;20411;-67
2023/07/23 10:16:58;;;;;;;6.68;5.43;;;16.80;99.90;;;;;;5054679;28;20048;-67
2023/07/23 10:19:25;;;;;;;6.90;5.43;;;16.90;99.90;;;;;;5036254;28;20048;-67
2023/07/23 10:21:51;;;;;;;6.82;5.53;;;16.90;99.90;;;;;;5036824;28;20091;-67
2023/07/23 10:24:18;;;;;;;7.82;5.38;;;16.90;99.90;;;;;;5036566;28;20382;-67
2023/07/23 10:26:48;;;;;;;7.53;5.82;;;17.00;99.90;;;;;;5020500;28;20049;-67
2023/07/23 10:29:18;;;;;;;9.35;5.80;;;17.00;99.90;;;;;;5036297;28;20052;-67
2023/07/23 10:31:45;;;;;;;7.40;6.22;;;17.00;99.90;;;;;;5054727;28;20072;-67
2023/07/23 10:34:27;;;;;;;9.48;5.65;;;17.10;99.90;;;;;;5054662;28;20049;-67
2023/07/23 10:37:12;;;;;;;6.43;5.07;;;17.10;99.90;;;;;;5053939;28;20068;-66
2023/07/23 10:39:40;;;;;;;8.38;5.30;;;17.10;99.90;;;;;;5053028;28;20049;-67
2023/07/23 10:42:07;;;;;;;8.02;5.63;;;17.20;99.90;;;;;;5054229;28;20049;-67
2023/07/23 10:44:33;;;;;;;8.15;5.93;;;17.20;99.90;;;;;;5054449;28;20045;-67
2023/07/23 10:47:20;;;;;;;9.63;6.07;;;17.10;99.90;;;;;;5054348;28;20079;-67
2023/07/23 10:50:13;;;;;;;7.32;5.72;;;17.20;99.90;;;;;;5035617;28;20370;-67
2023/07/23 10:52:42;;;;;;;9.75;5.95;;;17.20;99.90;;;;;;5030001;28;20052;-67
2023/07/23 10:55:08;;;;;;;10.90;6.00;;;17.20;99.90;;;;;;5036654;28;20068;-67
2023/07/23 10:57:40;;;;;;;6.68;5.35;;;17.20;99.90;;;;;;5036150;28;20045;-67
2023/07/23 11:00:19;;;;;;;6.97;5.75;;;17.20;99.90;;;;;;5034244;28;20057;-67
2023/07/23 11:02:53;;;;;;;7.65;5.63;;;17.20;99.90;;;;;;5036774;28;20503;-66
2023/07/23 11:05:23;;;;;;;8.00;5.63;;;17.20;99.90;;;;;;5036603;28;20087;-67
2023/07/23 11:08:14;;;;;;;7.32;5.80;;;17.20;99.90;;;;;;5052678;28;20087;-67
2023/07/23 11:11:01;;;;;;;7.65;5.35;;;17.20;99.90;;;;;;5033182;28;20057;-67
2023/07/23 11:13:31;;;;;;;7.50;5.05;;;17.20;99.90;;;;;;5033784;28;20049;-67
2023/07/23 11:15:58;;;;;;;7.28;5.50;;;17.20;99.90;;;;;;5016085;28;20053;-67
2023/07/23 11:18:28;;;;;;;6.22;5.15;;;17.30;99.90;;;;;;5038477;28;20041;-67
2023/07/23 11:20:54;;;;;;;6.30;5.45;;;17.30;99.90;;;;;;5053480;28;20048;-67
2023/07/23 11:23:25;;;;;;;7.97;5.70;;;17.30;99.90;;;;;;5053696;28;20053;-67
2023/07/23 11:25:52;;;;;;;6.50;5.40;;;17.40;99.90;;;;;;5053556;28;20044;-66
2023/07/23 11:28:20;;;;;;;6.60;5.25;;;17.40;99.90;;;;;;5035367;28;20053;-67
2023/07/23 11:30:49;;;;;;;7.50;5.20;;;17.40;99.90;;;;;;5053400;28;20048;-66
2023/07/23 11:33:17;;;;;;;6.40;4.68;;;17.50;99.90;;;;;;5053424;28;20083;-67
2023/07/23 11:35:43;;;;;;;6.75;5.13;;;17.40;99.90;;;;;;5045440;28;20053;-67
2023/07/23 11:38:10;;;;;;;6.22;4.65;;;17.40;99.90;;;;;;5032047;28;20431;-67
2023/07/23 11:40:36;;;;;;;5.82;4.85;;;17.50;99.90;;;;;;5033036;28;20108;-67
2023/07/23 11:43:06;;;;;;;5.45;4.30;;;17.60;99.90;;;;;;5015738;28;20056;-67
2023/07/23 11:45:43;;;;;;;6.28;4.18;;;17.50;99.90;;;;;;5033100;28;20053;-67
2023/07/23 11:48:22;;;;;;;7.13;4.30;;;17.60;99.90;;;;;;5032361;28;20042;-67
2023/07/23 11:50:49;;;;;;;5.40;4.32;;;17.60;99.90;;;;;;5015869;28;20045;-67
2023/07/23 11:53:42;;;;;;;4.93;3.83;;;17.70;99.90;;;;;;5033224;28;20057;-67
2023/07/23 11:56:10;;;;;;;5.57;3.92;;;17.70;99.90;;;;;;5030043;28;20065;-68
2023/07/23 11:58:37;;;;;;;4.30;3.70;;;17.70;99.90;;;;;;5031681;28;20117;-67
2023/07/23 12:01:04;;;;;;;6.00;4.13;;;17.80;99.90;;;;;;5015512;28;20460;-67
2023/07/23 12:03:41;;;;;;;5.25;3.92;;;17.70;99.90;;;;;;5032590;28;20374;-67
2023/07/23 12:06:09;;;;;;;6.28;4.05;;;18.00;99.90;;;;;;5015291;28;20072;-67
2023/07/23 12:08:38;;;;;;;6.13;4.35;;;17.90;99.90;;;;;;5031939;28;20119;-67
2023/07/23 12:11:12;;;;;;;5.78;4.60;;;17.90;99.90;;;;;;4999266;28;20049;-67
2023/07/23 12:13:49;;;;;;;5.25;4.22;;;18.00;99.90;;;;;;5032830;28;20108;-67
2023/07/23 12:16:34;;;;;;;5.53;4.55;;;18.20;99.90;;;;;;5015409;28;20086;-67
2023/07/23 12:19:03;;;;;;;6.55;4.72;;;18.50;99.90;;;;;;5031007;28;20041;-67
2023/07/23 12:21:29;;;;;;;6.38;4.93;;;18.60;99.90;;;;;;5032393;28;20049;-67
2023/07/23 12:23:56;;;;;;;6.95;5.20;;;18.70;99.90;;;;;;5031896;28;20409;-68
2023/07/23 12:26:22;;;;;;;7.97;5.60;;;18.90;99.90;;;;;;5032527;28;20053;-67
2023/07/23 12:28:48;;;;;;;6.43;5.05;;;19.00;99.90;;;;;;5031483;28;20068;-67
2023/07/23 12:31:14;;;;;;;6.45;4.97;;;19.20;99.90;;;;;;5032453;28;20076;-66
2023/07/23 12:33:41;;;;;;;6.70;5.93;;;19.30;99.90;;;;;;5014821;28;20058;-67
2023/07/23 12:36:07;;;;;;;6.30;5.35;;;19.60;99.90;;;;;;5042479;28;20618;-67
2023/07/23 12:38:33;;;;;;;6.97;6.00;;;19.80;99.90;;;;;;5016874;28;20124;-67
2023/07/23 12:41:00;;;;;;;6.90;5.78;;;19.80;99.90;;;;;;5034390;28;20057;-67
2023/07/23 12:43:26;;;;;;;7.93;6.22;;;19.90;99.90;;;;;;5052091;28;20049;-67
2023/07/23 12:45:52;;;;;;;7.75;5.63;;;19.90;99.90;;;;;;5051823;28;20458;-67
2023/07/23 12:48:19;;;;;;;8.48;6.85;;;19.90;99.90;;;;;;5033468;28;20441;-67